createdAt,value
2022-08-07T00:02:35.585Z,18.13
2022-08-07T00:04:09.391Z,17.94
2022-08-07T00:06:51.109Z,18.00
2022-08-07T00:09:22.615Z,18.13
2022-08-07T00:11:56.166Z,18.19
2022-08-07T00:14:31.292Z,18.13
2022-08-07T00:17:03.292Z,18.00
2022-08-07T00:19:59.649Z,18.00
2022-08-07T00:22:24.670Z,18.06
2022-08-07T00:25:15.788Z,18.06
2022-08-07T00:27:52.440Z,17.88
2022-08-07T00:30:27.249Z,18.06
2022-08-07T00:33:02.849Z,18.00
2022-08-07T00:35:30.676Z,17.88
2022-08-07T00:38:02.102Z,18.13
2022-08-07T00:40:39.704Z,18.13
2022-08-07T00:44:00.948Z,18.13
2022-08-07T00:46:02.546Z,18.06
2022-08-07T00:48:31.960Z,17.88
2022-08-07T00:51:02.888Z,17.94
2022-08-07T00:53:39.101Z,17.94
2022-08-07T00:56:17.591Z,17.88
2022-08-07T00:58:47.081Z,17.69
2022-08-07T01:01:16.278Z,17.81
2022-08-07T01:03:56.904Z,17.81
2022-08-07T01:06:30.032Z,17.81
2022-08-07T01:09:01.166Z,17.81
2022-08-07T01:12:23.970Z,17.75
2022-08-07T01:14:28.487Z,17.69
2022-08-07T01:16:57.395Z,17.88
2022-08-07T01:19:27.007Z,17.94
2022-08-07T01:21:59.862Z,17.94
2022-08-07T01:24:30.676Z,17.88
2022-08-07T01:26:58.513Z,17.88
2022-08-07T01:29:31.300Z,17.69
2022-08-07T01:32:05.480Z,17.75
2022-08-07T01:34:39.344Z,17.81
2022-08-07T01:37:09.538Z,17.94
2022-08-07T01:39:41.246Z,17.63
2022-08-07T01:42:38.292Z,17.75
2022-08-07T01:45:09.727Z,17.88
2022-08-07T01:48:20.647Z,17.81
2022-08-07T01:50:32.735Z,17.75
2022-08-07T01:53:08.661Z,17.63
2022-08-07T01:56:06.664Z,17.75
2022-08-07T01:58:45.235Z,17.81
2022-08-07T02:01:58.739Z,17.69
2022-08-07T02:04:30.379Z,17.63
2022-08-07T02:07:03.641Z,17.69
2022-08-07T02:09:52.402Z,17.56
2022-08-07T02:12:31.064Z,17.63
2022-08-07T02:15:01.498Z,17.56
2022-08-07T02:17:35.131Z,17.56
2022-08-07T02:20:17.228Z,17.63
2022-08-07T02:22:47.904Z,17.63
2022-08-07T02:26:10.405Z,17.56
2022-08-07T02:28:14.505Z,17.56
2022-08-07T02:30:54.308Z,17.63
2022-08-07T02:33:42.110Z,17.75
2022-08-07T02:36:30.728Z,17.50
2022-08-07T02:39:16.684Z,17.44
2022-08-07T02:41:54.905Z,17.44
2022-08-07T02:44:27.760Z,17.56
2022-08-07T02:47:04.368Z,17.44
2022-08-07T02:49:57.550Z,17.56
2022-08-07T02:52:31.951Z,17.56
2022-08-07T02:55:15.613Z,17.50
2022-08-07T02:58:03.267Z,17.56
2022-08-07T03:00:35.522Z,17.56
2022-08-07T03:03:08.094Z,17.63
2022-08-07T03:05:42.633Z,17.44
2022-08-07T03:08:11.580Z,17.63
2022-08-07T03:10:40.670Z,17.69
2022-08-07T03:13:09.081Z,17.63
2022-08-07T03:15:55.534Z,17.69
2022-08-07T03:18:34.275Z,17.75
2022-08-07T03:21:08.797Z,17.75
2022-08-07T03:24:20.897Z,17.81
2022-08-07T03:29:03.345Z,17.75
2022-08-07T03:31:43.476Z,17.75
2022-08-07T03:34:18.462Z,17.88
2022-08-07T03:36:51.881Z,17.81
2022-08-07T03:39:59.884Z,17.69
2022-08-07T03:42:10.067Z,17.69
2022-08-07T03:44:38.903Z,17.69
2022-08-07T03:47:13.802Z,17.88
2022-08-07T03:49:47.656Z,17.75
2022-08-07T03:52:27.772Z,17.75
2022-08-07T03:55:07.348Z,17.88
2022-08-07T03:58:34.438Z,17.81
2022-08-07T04:00:29.112Z,17.81
2022-08-07T04:03:03.862Z,17.81
2022-08-07T04:05:39.801Z,17.94
2022-08-07T04:08:20.925Z,18.00
2022-08-07T04:10:53.857Z,18.06
2022-08-07T04:13:27.729Z,17.94
2022-08-07T04:15:55.700Z,17.81
2022-08-07T04:18:56.509Z,18.00
2022-08-07T04:21:12.666Z,17.88
2022-08-07T04:24:03.326Z,18.00
2022-08-07T04:26:32.032Z,17.94
2022-08-07T04:28:59.660Z,17.94
2022-08-07T04:31:38.689Z,18.00
2022-08-07T04:34:23.913Z,18.00
2022-08-07T04:36:55.208Z,17.94
2022-08-07T04:39:25.953Z,17.81
2022-08-07T04:41:53.828Z,17.81
2022-08-07T04:44:21.561Z,17.94
2022-08-07T04:47:08.074Z,17.81
2022-08-07T04:50:03.667Z,18.00
2022-08-07T04:52:52.477Z,18.00
2022-08-07T04:58:13.256Z,18.06
2022-08-07T05:02:04.519Z,17.88
2022-08-07T05:05:01.286Z,18.13
2022-08-07T05:07:48.358Z,18.13
2022-08-07T05:10:29.908Z,18.06
2022-08-07T05:14:52.820Z,18.06
2022-08-07T05:16:21.267Z,18.19
2022-08-07T05:19:02.921Z,18.25
2022-08-07T05:21:59.900Z,18.38
2022-08-07T05:24:24.623Z,18.19
2022-08-07T05:27:01.036Z,18.25
2022-08-07T05:29:48.043Z,18.38
2022-08-07T05:32:19.628Z,18.44
2022-08-07T05:34:49.724Z,18.44
2022-08-07T05:37:25.277Z,18.38
2022-08-07T05:40:06.793Z,18.50
2022-08-07T05:42:41.225Z,18.50
2022-08-07T05:45:14.602Z,18.44
2022-08-07T05:48:01.157Z,18.63
2022-08-07T05:50:34.249Z,18.69
2022-08-07T05:53:05.033Z,18.75
2022-08-07T05:56:02.184Z,18.81
2022-08-07T05:58:36.853Z,18.69
2022-08-07T06:01:10.485Z,18.69
2022-08-07T06:03:56.848Z,18.69
2022-08-07T06:06:29.888Z,18.81
2022-08-07T06:09:01.411Z,18.81
2022-08-07T06:11:34.391Z,18.69
2022-08-07T06:14:12.339Z,18.69
2022-08-07T06:16:45.613Z,18.50
2022-08-07T06:19:52.253Z,18.50
2022-08-07T06:22:15.816Z,18.75
2022-08-07T06:24:58.331Z,18.81
2022-08-07T06:27:59.990Z,18.94
2022-08-07T06:30:36.021Z,19.06
2022-08-07T06:33:05.772Z,19.19
2022-08-07T06:35:47.824Z,19.19
2022-08-07T06:38:30.977Z,19.38
2022-08-07T06:41:03.162Z,19.50
2022-08-07T06:43:39.807Z,19.31
2022-08-07T06:46:12.140Z,19.38
2022-08-07T06:48:41.973Z,19.13
2022-08-07T06:51:31.170Z,19.13
2022-08-07T06:55:28.604Z,19.06
2022-08-07T06:56:52.111Z,19.25
2022-08-07T07:00:17.545Z,19.19
2022-08-07T07:02:53.390Z,19.25
2022-08-07T07:05:13.574Z,19.31
2022-08-07T07:08:06.427Z,19.31
2022-08-07T07:10:35.965Z,19.13
2022-08-07T07:13:56.498Z,19.31
2022-08-07T07:16:19.514Z,19.50
2022-08-07T07:18:55.014Z,19.50
2022-08-07T07:22:05.191Z,19.63
2022-08-07T07:24:18.349Z,19.88
2022-08-07T07:26:51.711Z,20.00
2022-08-07T07:29:40.315Z,19.94
2022-08-07T07:32:04.958Z,20.75
2022-08-07T07:34:35.384Z,20.69
2022-08-07T07:37:21.781Z,20.75
2022-08-07T07:40:03.316Z,20.56
2022-08-07T07:42:39.341Z,20.31
2022-08-07T07:45:09.052Z,20.63
2022-08-07T07:47:52.627Z,20.44
2022-08-07T07:50:35.021Z,20.56
2022-08-07T07:53:13.660Z,20.75
2022-08-07T07:55:57.806Z,20.50
2022-08-07T07:58:40.250Z,20.69
2022-08-07T08:02:01.737Z,20.56
2022-08-07T08:04:09.522Z,20.63
2022-08-07T08:06:50.902Z,20.81
2022-08-07T08:09:29.131Z,20.69
2022-08-07T08:12:01.614Z,20.69
2022-08-07T08:14:36.008Z,20.75
2022-08-07T08:17:14.201Z,20.88
2022-08-07T08:20:18.691Z,20.69
2022-08-07T08:23:14.254Z,20.75
2022-08-07T08:26:06.825Z,21.00
2022-08-07T08:28:43.364Z,21.06
2022-08-07T08:31:30.211Z,20.69
2022-08-07T08:34:19.003Z,20.88
2022-08-07T08:36:58.507Z,21.19
2022-08-07T08:39:39.408Z,21.19
2022-08-07T08:42:40.520Z,21.25
2022-08-07T08:45:58.742Z,21.06
2022-08-07T08:49:19.275Z,21.31
2022-08-07T08:52:14.096Z,21.25
2022-08-07T08:54:56.089Z,21.56
2022-08-07T08:57:52.922Z,21.88
2022-08-07T09:00:21.601Z,21.69
2022-08-07T09:03:47.450Z,21.56
2022-08-07T09:06:37.008Z,21.56
2022-08-07T09:09:47.464Z,21.13
2022-08-07T09:12:32.322Z,21.00
2022-08-07T09:16:22.377Z,21.31
2022-08-07T09:19:52.214Z,21.13
2022-08-07T09:24:32.369Z,21.31
2022-08-07T09:26:13.270Z,21.19
2022-08-07T09:30:05.704Z,21.38
2022-08-07T09:31:54.916Z,21.38
2022-08-07T09:36:05.187Z,21.44
2022-08-07T09:38:12.180Z,21.44
2022-08-07T09:41:03.523Z,21.69
2022-08-07T09:44:19.428Z,21.75
2022-08-07T09:50:23.360Z,22.13
2022-08-07T09:53:02.379Z,22.19
2022-08-07T09:56:02.479Z,22.19
2022-08-07T10:01:57.997Z,22.19
2022-08-07T10:05:16.137Z,22.19
2022-08-07T10:08:10.412Z,21.75
2022-08-07T10:12:01.104Z,21.88
2022-08-07T10:14:22.979Z,22.25
2022-08-07T10:17:27.359Z,22.31
2022-08-07T10:20:30.263Z,22.25
2022-08-07T10:24:05.621Z,22.38
2022-08-07T10:27:46.022Z,22.44
2022-08-07T10:30:20.681Z,22.44
2022-08-07T10:34:13.967Z,23.00
2022-08-07T10:38:00.398Z,23.06
2022-08-07T10:40:37.025Z,23.31
2022-08-07T10:43:39.065Z,23.50
2022-08-07T10:46:16.022Z,23.31
2022-08-07T10:48:51.299Z,23.75
2022-08-07T10:52:02.339Z,23.69
2022-08-07T10:55:01.346Z,23.88
2022-08-07T10:57:56.562Z,23.44
2022-08-07T11:00:36.910Z,23.63
2022-08-07T11:03:17.474Z,23.81
2022-08-07T11:06:04.863Z,23.88
2022-08-07T11:08:53.423Z,23.63
2022-08-07T11:11:51.885Z,23.38
2022-08-07T11:15:00.111Z,23.13
2022-08-07T11:18:04.729Z,23.06
2022-08-07T11:20:43.746Z,23.56
2022-08-07T11:23:48.435Z,23.38
2022-08-07T11:26:48.331Z,23.56
2022-08-07T11:32:13.696Z,23.25
2022-08-07T11:35:04.440Z,23.19
2022-08-07T11:38:12.428Z,23.44
2022-08-07T11:40:56.628Z,23.25
2022-08-07T11:43:54.409Z,23.13
2022-08-07T11:46:48.687Z,23.31
2022-08-07T11:50:31.948Z,23.56
2022-08-07T11:53:35.124Z,23.44
2022-08-07T11:56:27.220Z,23.56
2022-08-07T12:00:11.063Z,23.44
2022-08-07T12:02:52.107Z,23.50
2022-08-07T12:05:48.895Z,23.56
2022-08-07T12:08:26.047Z,23.56
2022-08-07T12:11:43.196Z,23.25
2022-08-07T12:14:56.375Z,23.50
2022-08-07T12:17:58.644Z,23.81
2022-08-07T12:22:36.373Z,23.63
2022-08-07T12:26:00.334Z,23.50
2022-08-07T12:28:09.769Z,23.56
2022-08-07T12:30:46.935Z,23.44
2022-08-07T12:33:30.691Z,23.50
2022-08-07T12:36:15.918Z,23.38
2022-08-07T12:38:57.051Z,23.44
2022-08-07T12:41:29.193Z,23.44
2022-08-07T12:44:17.340Z,23.63
2022-08-07T12:47:03.290Z,23.44
2022-08-07T12:49:50.978Z,23.38
2022-08-07T12:52:35.452Z,23.44
2022-08-07T12:55:24.907Z,23.38
2022-08-07T12:58:13.194Z,23.56
2022-08-07T13:01:08.053Z,23.56
2022-08-07T13:03:59.365Z,23.63
2022-08-07T13:08:14.139Z,23.63
2022-08-07T13:10:39.701Z,23.50
2022-08-07T13:13:47.352Z,23.63
2022-08-07T13:16:29.449Z,23.63
2022-08-07T13:19:50.942Z,23.44
2022-08-07T13:22:33.160Z,23.50
2022-08-07T13:25:24.216Z,23.56
2022-08-07T13:28:12.829Z,23.31
2022-08-07T13:30:53.273Z,23.44
2022-08-07T13:34:31.278Z,23.69
2022-08-07T13:37:19.816Z,23.63
2022-08-07T13:40:36.188Z,23.63
2022-08-07T13:43:16.166Z,23.69
2022-08-07T13:46:11.255Z,23.75
2022-08-07T13:48:51.873Z,23.75
2022-08-07T13:52:04.896Z,23.69
2022-08-07T13:54:23.543Z,23.75
2022-08-07T13:56:59.555Z,23.81
2022-08-07T13:59:31.621Z,23.69
2022-08-07T14:02:10.123Z,23.56
2022-08-07T14:04:54.692Z,23.63
2022-08-07T14:07:33.587Z,23.81
2022-08-07T14:10:16.486Z,23.75
2022-08-07T14:12:56.860Z,23.81
2022-08-07T14:15:43.756Z,23.69
2022-08-07T14:18:37.088Z,23.56
2022-08-07T14:22:01.166Z,23.56
2022-08-07T14:24:41.318Z,23.50
2022-08-07T14:28:09.432Z,23.50
2022-08-07T14:30:12.379Z,23.63
2022-08-07T14:32:45.794Z,23.50
2022-08-07T14:35:43.387Z,23.50
2022-08-07T14:38:26.231Z,23.38
2022-08-07T14:43:57.950Z,23.50
2022-08-07T14:46:31.493Z,23.44
2022-08-07T14:49:17.466Z,23.63
2022-08-07T14:52:02.862Z,23.56
2022-08-07T14:54:41.645Z,23.69
2022-08-07T14:57:19.513Z,23.63
2022-08-07T15:02:39.087Z,23.38
2022-08-07T15:05:20.068Z,23.25
2022-08-07T15:07:52.054Z,23.19
2022-08-07T15:10:29.601Z,23.31
2022-08-07T15:13:06.339Z,23.31
2022-08-07T15:15:52.585Z,23.38
2022-08-07T15:21:58.496Z,23.63
2022-08-07T15:25:15.715Z,23.63
2022-08-07T15:27:29.986Z,23.50
2022-08-07T15:30:16.146Z,23.44
2022-08-07T15:33:01.392Z,23.44
2022-08-07T15:36:01.147Z,23.44
2022-08-07T15:38:33.257Z,23.44
2022-08-07T15:41:24.327Z,23.38
2022-08-07T15:44:10.781Z,23.50
2022-08-07T15:46:51.844Z,23.38
2022-08-07T15:50:06.133Z,23.31
2022-08-07T15:52:30.447Z,23.31
2022-08-07T15:55:03.570Z,23.38
2022-08-07T15:57:40.338Z,23.38
2022-08-07T16:00:31.449Z,23.38
2022-08-07T16:03:22.019Z,23.31
2022-08-07T16:05:59.179Z,23.19
2022-08-07T16:08:38.211Z,23.19
2022-08-07T16:11:26.761Z,23.13
2022-08-07T16:14:20.615Z,23.19
2022-08-07T16:17:16.218Z,23.13
2022-08-07T16:20:37.511Z,23.06
2022-08-07T16:23:52.202Z,23.00
2022-08-07T16:26:31.007Z,23.00
2022-08-07T16:30:10.267Z,22.94
2022-08-07T16:32:34.972Z,22.81
2022-08-07T16:35:59.446Z,22.75
2022-08-07T16:38:10.297Z,22.69
2022-08-07T16:41:02.417Z,22.69
2022-08-07T16:44:53.872Z,22.63
2022-08-07T16:47:51.439Z,22.69
2022-08-07T16:51:20.975Z,22.56
2022-08-07T16:54:09.300Z,22.56
2022-08-07T16:56:40.687Z,22.50
2022-08-07T16:59:23.069Z,22.44
2022-08-07T17:02:52.957Z,22.44
2022-08-07T17:06:19.572Z,22.44
2022-08-07T17:09:10.477Z,22.38
2022-08-07T17:12:04.523Z,22.31
2022-08-07T17:14:54.173Z,22.25
2022-08-07T17:17:44.261Z,22.31
2022-08-07T17:20:37.801Z,22.31
2022-08-07T17:23:31.880Z,22.13
2022-08-07T17:26:48.215Z,22.00
2022-08-07T17:30:14.284Z,22.06
2022-08-07T17:32:51.839Z,22.00
2022-08-07T17:35:54.962Z,21.88
2022-08-07T17:38:52.458Z,21.81
2022-08-07T17:42:04.072Z,21.75
2022-08-07T17:44:49.790Z,21.75
2022-08-07T17:47:45.694Z,21.75
2022-08-07T17:50:52.576Z,21.63
2022-08-07T17:54:02.354Z,21.63
2022-08-07T17:56:49.644Z,21.56
2022-08-07T17:59:45.554Z,21.56
2022-08-07T18:02:34.255Z,21.50
2022-08-07T18:05:21.668Z,21.44
2022-08-07T18:08:24.282Z,21.56
2022-08-07T18:12:07.026Z,21.50
2022-08-07T18:14:24.147Z,21.38
2022-08-07T18:18:46.567Z,21.31
2022-08-07T18:21:07.391Z,21.38
2022-08-07T18:23:43.704Z,21.25
2022-08-07T18:26:20.457Z,21.25
2022-08-07T18:30:06.227Z,21.19
2022-08-07T18:32:17.221Z,21.25
2022-08-07T18:35:21.825Z,21.19
2022-08-07T18:38:56.752Z,21.19
2022-08-07T18:41:37.743Z,21.19
2022-08-07T18:45:39.621Z,21.06
2022-08-07T18:48:00.495Z,21.13
2022-08-07T18:50:45.619Z,21.13
2022-08-07T18:53:16.701Z,21.06
2022-08-07T18:55:57.150Z,21.06
2022-08-07T18:58:52.308Z,21.00
2022-08-07T19:02:20.181Z,21.00
2022-08-07T19:04:57.472Z,21.00
2022-08-07T19:07:57.735Z,20.81
2022-08-07T19:10:49.799Z,20.88
2022-08-07T19:13:50.293Z,20.75
2022-08-07T19:17:07.645Z,20.69
2022-08-07T19:20:28.966Z,20.75
2022-08-07T19:23:18.389Z,20.75
2022-08-07T19:26:23.263Z,20.63
2022-08-07T19:30:57.411Z,20.63
2022-08-07T19:32:07.837Z,20.63
2022-08-07T19:34:55.373Z,20.56
2022-08-07T19:37:24.045Z,20.56
2022-08-07T19:40:14.198Z,20.50
2022-08-07T19:42:43.615Z,20.38
2022-08-07T19:45:21.711Z,20.38
2022-08-07T19:48:18.799Z,20.44
2022-08-07T19:50:53.286Z,20.38
2022-08-07T19:54:31.355Z,20.44
2022-08-07T19:57:51.359Z,20.38
2022-08-07T19:59:03.564Z,20.31
2022-08-07T20:01:52.803Z,20.19
2022-08-07T20:04:31.798Z,20.25
2022-08-07T20:07:00.684Z,20.19
2022-08-07T20:10:35.351Z,20.25
2022-08-07T20:12:31.901Z,20.19
2022-08-07T20:15:04.745Z,20.06
2022-08-07T20:17:38.638Z,20.06
2022-08-07T20:20:09.137Z,20.06
2022-08-07T20:22:41.437Z,20.06
2022-08-07T20:25:19.321Z,19.88
2022-08-07T20:27:54.293Z,19.94
2022-08-07T20:30:33.274Z,19.88
2022-08-07T20:33:03.352Z,19.75
2022-08-07T20:35:51.783Z,19.88
2022-08-07T20:38:24.609Z,19.69
2022-08-07T20:40:57.946Z,19.69
2022-08-07T20:43:29.388Z,19.75
2022-08-07T20:46:29.107Z,19.56
2022-08-07T20:49:54.480Z,19.50
2022-08-07T20:51:40.722Z,19.50
2022-08-07T20:54:30.127Z,19.63
2022-08-07T20:57:03.824Z,19.50
2022-08-07T21:00:06.736Z,19.44
2022-08-07T21:02:54.400Z,19.50
2022-08-07T21:05:52.467Z,19.38
2022-08-07T21:08:37.599Z,19.44
2022-08-07T21:11:14.376Z,19.31
2022-08-07T21:14:16.743Z,19.38
2022-08-07T21:17:06.394Z,19.38
2022-08-07T21:19:51.798Z,19.25
2022-08-07T21:22:34.764Z,19.25
2022-08-07T21:25:29.135Z,19.31
2022-08-07T21:28:48.763Z,19.25
2022-08-07T21:32:41.918Z,19.31
2022-08-07T21:34:46.101Z,19.06
2022-08-07T21:37:58.864Z,19.13
2022-08-07T21:40:44.227Z,19.13
2022-08-07T21:43:55.508Z,19.25
2022-08-07T21:46:38.636Z,19.25
2022-08-07T21:50:01.053Z,19.13
2022-08-07T21:52:50.545Z,19.06
2022-08-07T21:55:30.373Z,19.19
2022-08-07T21:58:29.907Z,19.19
2022-08-07T22:01:05.092Z,19.19
2022-08-07T22:03:48.367Z,19.25
2022-08-07T22:06:30.653Z,19.25
2022-08-07T22:09:08.203Z,19.31
2022-08-07T22:12:04.867Z,19.19
2022-08-07T22:14:59.439Z,19.13
2022-08-07T22:17:36.756Z,19.13
2022-08-07T22:20:10.892Z,19.13
2022-08-07T22:22:57.542Z,19.19
2022-08-07T22:26:04.958Z,19.13
2022-08-07T22:28:54.264Z,19.06
2022-08-07T22:32:03.471Z,19.25
2022-08-07T22:34:56.075Z,19.25
2022-08-07T22:38:01.973Z,19.31
2022-08-07T22:41:13.276Z,19.06
2022-08-07T22:43:50.332Z,19.19
2022-08-07T22:47:06.097Z,19.19
2022-08-07T22:50:41.861Z,19.00
2022-08-07T22:54:05.239Z,19.13
2022-08-07T22:57:17.075Z,19.06
2022-08-07T22:59:52.006Z,19.13
2022-08-07T23:02:41.273Z,18.69
2022-08-07T23:06:09.553Z,18.69
2022-08-07T23:10:04.610Z,18.69
2022-08-07T23:12:10.195Z,18.75
2022-08-07T23:14:54.465Z,18.81
2022-08-07T23:17:34.031Z,18.81
2022-08-07T23:20:52.602Z,18.81
2022-08-07T23:24:16.854Z,18.75
2022-08-07T23:27:15.656Z,18.81
2022-08-07T23:30:37.278Z,18.50
2022-08-07T23:34:34.908Z,18.56
2022-08-07T23:36:43.050Z,18.44
2022-08-07T23:39:24.487Z,18.44
2022-08-07T23:42:43.330Z,18.56
2022-08-07T23:46:01.472Z,18.63
2022-08-07T23:48:34.267Z,18.56
2022-08-07T23:53:00.750Z,18.56
2022-08-07T23:54:46.612Z,18.63
2022-08-07T23:57:36.845Z,18.69
